Time;durP1;ratioP1;P1;durP2;ratioP2;P2;SDS_P1;SDS_P2;PMS_P1;PMS_P2;Temp;Humidity;BMP_temperature;BMP_pressure;BME280_temperature;BME280_humidity;BME280_pressure;Samples;Min_cycle;Max_cycle;Signal;HPM_P1;HPM_P2
2022/06/27 00:01:36;;;;;;;;;2.00;2.00;;;;;;;;4880118;29;45430;-69
2022/06/27 00:04:03;;;;;;;;;3.00;3.00;;;;;;;;4879711;29;45487;-69
2022/06/27 00:06:28;;;;;;;;;4.00;2.33;;;;;;;;4885468;29;45479;-69
2022/06/27 00:08:53;;;;;;;;;2.00;2.00;;;;;;;;4886205;29;45174;-69
2022/06/27 00:11:19;;;;;;;;;2.33;1.67;;;;;;;;4886217;29;45569;-69
2022/06/27 00:13:45;;;;;;;;;4.33;3.00;;;;;;;;4894528;29;46028;-69
2022/06/27 00:16:10;;;;;;;;;4.33;3.00;;;;;;;;4889439;29;45236;-69
2022/06/27 00:18:35;;;;;;;;;3.00;3.00;;;;;;;;4890703;29;45173;-69
2022/06/27 00:21:01;;;;;;;;;5.00;2.67;;;;;;;;4889930;29;45326;-69
2022/06/27 00:23:26;;;;;;;;;3.00;3.00;;;;;;;;4892329;28;45575;-69
2022/06/27 00:25:51;;;;;;;;;4.00;3.00;;;;;;;;4893554;28;45670;-69
2022/06/27 00:28:16;;;;;;;;;3.33;3.00;;;;;;;;4894695;29;45361;-69
2022/06/27 00:30:42;;;;;;;;;4.00;4.00;;;;;;;;4888488;28;45353;-69
2022/06/27 00:33:07;;;;;;;;;5.00;3.67;;;;;;;;4895088;29;45344;-69
2022/06/27 00:35:32;;;;;;;;;2.67;2.67;;;;;;;;4898334;28;46424;-69
2022/06/27 00:37:57;;;;;;;;;3.00;3.00;;;;;;;;4875103;29;45325;-69
2022/06/27 00:40:23;;;;;;;;;3.33;3.00;;;;;;;;4886939;29;45208;-68
2022/06/27 00:42:48;;;;;;;;;3.00;2.00;;;;;;;;4881895;29;45540;-69
2022/06/27 00:45:13;;;;;;;;;2.33;2.33;;;;;;;;4889014;29;45309;-69
2022/06/27 00:47:38;;;;;;;;;2.00;2.00;;;;;;;;4881717;28;45302;-69
2022/06/27 00:50:04;;;;;;;;;3.00;3.00;;;;;;;;4889475;29;45439;-69
2022/06/27 00:52:30;;;;;;;;;3.00;3.00;;;;;;;;4881992;29;45512;-69
2022/06/27 00:54:55;;;;;;;;;2.00;2.00;;;;;;;;4896588;29;45339;-69
2022/06/27 00:57:20;;;;;;;;;2.67;2.33;;;;;;;;4882786;28;45289;-69
2022/06/27 00:59:46;;;;;;;;;3.33;2.00;;;;;;;;4904997;28;45366;-69
2022/06/27 01:02:11;;;;;;;;;3.00;3.00;;;;;;;;4890658;29;45589;-69
2022/06/27 01:04:36;;;;;;;;;3.00;3.00;;;;;;;;4898317;29;46303;-69
2022/06/27 01:07:02;;;;;;;;;5.33;2.00;;;;;;;;4891508;28;45296;-69
2022/06/27 01:09:27;;;;;;;;;3.33;3.33;;;;;;;;4892932;29;45394;-68
2022/06/27 01:11:53;;;;;;;;;4.67;3.00;;;;;;;;4893185;29;45424;-69
2022/06/27 01:14:18;;;;;;;;;4.00;1.67;;;;;;;;4898932;28;45415;-69
2022/06/27 01:16:44;;;;;;;;;3.00;3.00;;;;;;;;4892561;28;45353;-69
2022/06/27 01:19:10;;;;;;;;;5.67;4.00;;;;;;;;4899662;28;45268;-69
2022/06/27 01:21:38;;;;;;;;;4.67;3.67;;;;;;;;4887848;29;45539;-69
2022/06/27 01:24:03;;;;;;;;;5.00;3.33;;;;;;;;4894395;29;45565;-69
2022/06/27 01:26:29;;;;;;;;;4.00;2.67;;;;;;;;4881395;28;45464;-68
2022/06/27 01:28:54;;;;;;;;;5.33;4.00;;;;;;;;4891198;29;45550;-69
2022/06/27 01:31:19;;;;;;;;;6.67;4.33;;;;;;;;4892102;29;45470;-69
2022/06/27 01:33:44;;;;;;;;;7.00;3.33;;;;;;;;4896966;29;46998;-69
2022/06/27 01:38:54;;;;;;;;;2.33;2.33;;;;;;;;4888167;29;45404;-69
2022/06/27 01:41:20;;;;;;;;;3.00;3.00;;;;;;;;4885107;29;45407;-69
2022/06/27 01:43:46;;;;;;;;;3.33;3.00;;;;;;;;4884471;29;45316;-69
2022/06/27 01:46:12;;;;;;;;;3.67;3.33;;;;;;;;4891028;28;45315;-69
2022/06/27 01:48:38;;;;;;;;;4.33;3.00;;;;;;;;4890043;29;45458;-69
2022/06/27 01:51:03;;;;;;;;;3.67;3.67;;;;;;;;4883314;29;46028;-69
2022/06/27 01:53:29;;;;;;;;;2.00;2.00;;;;;;;;4890350;29;46288;-69
2022/06/27 01:55:54;;;;;;;;;4.67;4.33;;;;;;;;4889275;28;45249;-69
2022/06/27 01:58:19;;;;;;;;;4.00;3.00;;;;;;;;4895100;29;45300;-69
2022/06/27 02:00:45;;;;;;;;;3.00;3.00;;;;;;;;4894849;28;45467;-69
2022/06/27 02:03:10;;;;;;;;;6.67;4.33;;;;;;;;4889604;29;46451;-69
2022/06/27 02:05:35;;;;;;;;;4.33;4.33;;;;;;;;4886247;28;45383;-69
2022/06/27 02:08:02;;;;;;;;;5.00;3.67;;;;;;;;4893045;29;45261;-68
2022/06/27 02:10:27;;;;;;;;;5.00;4.00;;;;;;;;4896968;28;45395;-69
2022/06/27 02:12:53;;;;;;;;;4.33;3.67;;;;;;;;4890591;29;46442;-69
2022/06/27 02:15:18;;;;;;;;;2.00;2.00;;;;;;;;4899446;28;45334;-69
2022/06/27 02:17:43;;;;;;;;;3.33;3.33;;;;;;;;4879805;29;45292;-69
2022/06/27 02:20:08;;;;;;;;;1.67;1.67;;;;;;;;4886809;28;45555;-68
2022/06/27 02:22:34;;;;;;;;;3.00;3.00;;;;;;;;4882252;29;45355;-68
2022/06/27 02:24:59;;;;;;;;;3.00;3.00;;;;;;;;4891491;29;45443;-68
2022/06/27 02:27:25;;;;;;;;;5.67;4.00;;;;;;;;4884104;29;45443;-68
2022/06/27 02:29:51;;;;;;;;;3.00;3.00;;;;;;;;4889048;28;45400;-68
2022/06/27 02:32:16;;;;;;;;;3.00;3.00;;;;;;;;4885518;29;46440;-67
2022/06/27 02:34:41;;;;;;;;;6.00;3.00;;;;;;;;4890833;29;45351;-68
2022/06/27 02:37:07;;;;;;;;;3.00;3.00;;;;;;;;4882780;28;45380;-68
2022/06/27 02:39:35;;;;;;;;;2.67;2.67;;;;;;;;4892263;28;45333;-68
2022/06/27 02:42:01;;;;;;;;;4.00;3.33;;;;;;;;4883066;28;45426;-68
2022/06/27 02:44:26;;;;;;;;;3.67;3.00;;;;;;;;4893062;29;45281;-67
2022/06/27 02:46:51;;;;;;;;;5.33;3.00;;;;;;;;4881852;28;45563;-68
2022/06/27 02:49:17;;;;;;;;;4.00;4.00;;;;;;;;4876700;29;45203;-68
2022/06/27 02:51:43;;;;;;;;;3.00;3.00;;;;;;;;4879095;29;45400;-67
2022/06/27 02:54:29;;;;;;;;;2.67;2.67;;;;;;;;4880256;28;45381;-68
2022/06/27 02:57:00;;;;;;;;;4.00;4.00;;;;;;;;4877820;29;45436;-67
2022/06/27 02:59:28;;;;;;;;;3.00;3.00;;;;;;;;4887912;29;45619;-68
2022/06/27 03:01:56;;;;;;;;;2.67;2.00;;;;;;;;4883396;29;45615;-68
2022/06/27 03:04:21;;;;;;;;;4.33;3.00;;;;;;;;4885540;28;45377;-68
2022/06/27 03:06:49;;;;;;;;;3.67;2.67;;;;;;;;4893961;29;45652;-67
2022/06/27 03:09:14;;;;;;;;;2.00;2.00;;;;;;;;4894476;29;46627;-67
2022/06/27 03:11:40;;;;;;;;;3.00;3.00;;;;;;;;4886159;29;45416;-67
2022/06/27 03:14:06;;;;;;;;;4.33;2.33;;;;;;;;4893577;29;45488;-67
2022/06/27 03:16:32;;;;;;;;;2.00;2.00;;;;;;;;4886508;29;45238;-67
2022/06/27 03:18:57;;;;;;;;;3.00;3.00;;;;;;;;4892592;29;45292;-67
2022/06/27 03:21:22;;;;;;;;;5.00;3.00;;;;;;;;4880603;29;46512;-67
2022/06/27 03:23:48;;;;;;;;;2.33;2.33;;;;;;;;4878306;29;45400;-67
2022/06/27 03:26:13;;;;;;;;;4.67;3.67;;;;;;;;4885056;29;45466;-67
2022/06/27 03:28:39;;;;;;;;;4.00;4.00;;;;;;;;4879249;29;45589;-67
2022/06/27 03:31:04;;;;;;;;;3.00;2.00;;;;;;;;4882623;29;45458;-67
2022/06/27 03:33:29;;;;;;;;;2.33;2.33;;;;;;;;4881285;29;45338;-67
2022/06/27 03:35:54;;;;;;;;;3.00;3.00;;;;;;;;4891255;28;45396;-69
2022/06/27 03:38:20;;;;;;;;;5.33;3.33;;;;;;;;4884041;29;45278;-67
2022/06/27 03:40:45;;;;;;;;;3.00;3.00;;;;;;;;4887873;29;46218;-67
2022/06/27 03:43:10;;;;;;;;;4.00;3.00;;;;;;;;4884398;29;45455;-67
2022/06/27 03:45:35;;;;;;;;;4.67;4.33;;;;;;;;4891209;29;45325;-67
2022/06/27 03:48:02;;;;;;;;;6.00;4.33;;;;;;;;4884789;29;45428;-67
2022/06/27 03:50:27;;;;;;;;;2.33;2.33;;;;;;;;4893745;29;45829;-67
2022/06/27 03:52:54;;;;;;;;;4.00;3.00;;;;;;;;4884022;29;45232;-69
2022/06/27 03:55:19;;;;;;;;;3.67;3.67;;;;;;;;4895123;29;45603;-69
2022/06/27 03:57:52;;;;;;;;;4.00;4.00;;;;;;;;4875778;29;45411;-69
2022/06/27 04:00:19;;;;;;;;;3.00;3.00;;;;;;;;4898778;28;48052;-69
2022/06/27 04:02:44;;;;;;;;;7.00;4.00;;;;;;;;4878588;29;45407;-69
2022/06/27 04:05:09;;;;;;;;;4.33;4.00;;;;;;;;4888499;29;45435;-69
2022/06/27 04:07:35;;;;;;;;;3.00;3.00;;;;;;;;4894148;29;45246;-67
2022/06/27 04:10:00;;;;;;;;;2.00;2.00;;;;;;;;4897406;29;45356;-67
2022/06/27 04:12:25;;;;;;;;;4.67;3.00;;;;;;;;4879486;28;45165;-69
2022/06/27 04:14:51;;;;;;;;;3.00;3.00;;;;;;;;4899288;29;45233;-69
2022/06/27 04:17:16;;;;;;;;;4.00;4.00;;;;;;;;4888791;28;45347;-67
2022/06/27 04:19:41;;;;;;;;;3.00;3.00;;;;;;;;4900344;29;46734;-67
2022/06/27 04:22:08;;;;;;;;;3.00;3.00;;;;;;;;4886917;28;45287;-67
2022/06/27 04:24:34;;;;;;;;;3.33;3.33;;;;;;;;4898271;29;45458;-67
2022/06/27 04:26:59;;;;;;;;;3.67;3.33;;;;;;;;4887598;29;46976;-69
2022/06/27 04:29:26;;;;;;;;;2.33;1.67;;;;;;;;4890952;29;45639;-68
2022/06/27 04:31:51;;;;;;;;;5.67;2.67;;;;;;;;4881011;29;45407;-67
2022/06/27 04:34:17;;;;;;;;;1.67;1.67;;;;;;;;4899227;29;45449;-69
2022/06/27 04:36:42;;;;;;;;;2.67;2.67;;;;;;;;4881925;29;45918;-67
2022/06/27 04:39:08;;;;;;;;;2.67;2.67;;;;;;;;4887299;29;46060;-67
2022/06/27 04:41:33;;;;;;;;;4.00;2.67;;;;;;;;4880669;29;45374;-67
2022/06/27 04:43:58;;;;;;;;;2.67;2.67;;;;;;;;4887164;29;45281;-67
2022/06/27 04:46:24;;;;;;;;;3.00;3.00;;;;;;;;4885346;28;45203;-67
2022/06/27 04:48:49;;;;;;;;;2.33;2.33;;;;;;;;4871864;29;45566;-67
2022/06/27 04:51:14;;;;;;;;;4.00;3.00;;;;;;;;4882941;29;45309;-67
2022/06/27 04:53:40;;;;;;;;;2.67;2.67;;;;;;;;4880042;29;45527;-68
2022/06/27 04:56:06;;;;;;;;;3.00;3.00;;;;;;;;4884910;29;46121;-67
2022/06/27 04:58:32;;;;;;;;;3.00;3.00;;;;;;;;4882207;29;45282;-67
2022/06/27 05:00:57;;;;;;;;;3.00;3.00;;;;;;;;4885550;28;45245;-68
2022/06/27 05:03:23;;;;;;;;;3.00;3.00;;;;;;;;4890784;29;45176;-68
2022/06/27 05:05:50;;;;;;;;;1.00;1.00;;;;;;;;4892490;28;45226;-69
2022/06/27 05:08:15;;;;;;;;;3.00;2.00;;;;;;;;4901231;29;45595;-67
2022/06/27 05:10:40;;;;;;;;;4.00;3.00;;;;;;;;4895097;29;45357;-68
2022/06/27 05:13:05;;;;;;;;;2.67;2.67;;;;;;;;4894745;29;45341;-67
2022/06/27 05:15:30;;;;;;;;;2.00;2.00;;;;;;;;4898978;29;45704;-68
2022/06/27 05:17:56;;;;;;;;;2.67;2.67;;;;;;;;4870939;29;46506;-69
2022/06/27 05:20:22;;;;;;;;;5.00;2.33;;;;;;;;4885237;29;45674;-68
2022/06/27 05:22:47;;;;;;;;;3.33;3.33;;;;;;;;4884357;29;45315;-68
2022/06/27 05:25:13;;;;;;;;;3.00;3.00;;;;;;;;4891808;28;45553;-69
2022/06/27 05:27:38;;;;;;;;;3.00;2.67;;;;;;;;4886369;29;47191;-68
2022/06/27 05:30:04;;;;;;;;;2.33;2.33;;;;;;;;4886016;29;45311;-68
2022/06/27 05:32:29;;;;;;;;;3.67;2.00;;;;;;;;4894176;29;45431;-69
2022/06/27 05:34:54;;;;;;;;;5.33;3.00;;;;;;;;4902459;28;45544;-69
2022/06/27 05:37:20;;;;;;;;;3.33;2.00;;;;;;;;4881220;28;45501;-68
2022/06/27 05:39:46;;;;;;;;;3.00;3.00;;;;;;;;4893042;29;45468;-69
2022/06/27 05:42:11;;;;;;;;;2.00;2.00;;;;;;;;4881764;29;45293;-69
2022/06/27 05:44:36;;;;;;;;;3.00;3.00;;;;;;;;4876606;29;45979;-67
2022/06/27 05:47:02;;;;;;;;;3.00;3.00;;;;;;;;4877387;28;45430;-68
2022/06/27 05:49:27;;;;;;;;;2.00;2.00;;;;;;;;4879923;28;45234;-68
2022/06/27 05:51:55;;;;;;;;;3.00;3.00;;;;;;;;4877121;29;45301;-68
2022/06/27 05:54:24;;;;;;;;;3.00;3.00;;;;;;;;4895713;29;45295;-68
2022/06/27 05:56:50;;;;;;;;;3.00;2.33;;;;;;;;4883582;29;47208;-67
2022/06/27 05:59:16;;;;;;;;;3.00;3.00;;;;;;;;4883082;28;45238;-69
2022/06/27 06:01:43;;;;;;;;;3.33;2.67;;;;;;;;4881673;29;45210;-68
2022/06/27 06:04:08;;;;;;;;;2.00;2.00;;;;;;;;4892282;28;45424;-68
2022/06/27 06:06:33;;;;;;;;;4.00;3.00;;;;;;;;4895703;29;45480;-68
2022/06/27 06:09:01;;;;;;;;;3.00;3.00;;;;;;;;4899823;28;45310;-69
2022/06/27 06:11:27;;;;;;;;;2.00;2.00;;;;;;;;4897832;28;45430;-68
2022/06/27 06:13:53;;;;;;;;;3.00;3.00;;;;;;;;4899203;29;45594;-69
2022/06/27 06:16:19;;;;;;;;;2.33;2.33;;;;;;;;4896140;29;46559;-68
2022/06/27 06:18:47;;;;;;;;;3.33;3.33;;;;;;;;4901018;28;45340;-69
2022/06/27 06:21:12;;;;;;;;;2.67;2.67;;;;;;;;4895811;28;45401;-69
2022/06/27 06:23:37;;;;;;;;;6.33;3.00;;;;;;;;4899222;29;45357;-69
2022/06/27 06:26:05;;;;;;;;;2.00;2.00;;;;;;;;4893398;28;46515;-69
2022/06/27 06:28:30;;;;;;;;;4.33;3.00;;;;;;;;4889665;29;45443;-69
2022/06/27 06:30:56;;;;;;;;;4.00;2.33;;;;;;;;4884958;29;45621;-69
2022/06/27 06:33:21;;;;;;;;;4.00;3.00;;;;;;;;4890344;28;45384;-70
2022/06/27 06:35:46;;;;;;;;;3.00;3.00;;;;;;;;4888105;29;45450;-69
2022/06/27 06:38:12;;;;;;;;;5.00;3.67;;;;;;;;4893360;29;46435;-69
2022/06/27 06:40:38;;;;;;;;;4.00;3.67;;;;;;;;4888341;28;45502;-69
2022/06/27 06:43:04;;;;;;;;;3.33;3.00;;;;;;;;4893806;29;45511;-69
2022/06/27 06:45:30;;;;;;;;;4.00;4.00;;;;;;;;4887762;28;48051;-68
2022/06/27 06:47:56;;;;;;;;;5.00;3.00;;;;;;;;4886987;29;45376;-68
2022/06/27 06:50:21;;;;;;;;;2.67;2.67;;;;;;;;4889361;29;45645;-71
2022/06/27 06:52:49;;;;;;;;;2.33;2.33;;;;;;;;4889337;29;45844;-69
2022/06/27 06:55:16;;;;;;;;;3.33;3.33;;;;;;;;4884905;28;45992;-69
2022/06/27 06:57:41;;;;;;;;;3.00;3.00;;;;;;;;4889685;29;45575;-69
2022/06/27 07:00:07;;;;;;;;;4.67;2.00;;;;;;;;4890307;29;46483;-69
2022/06/27 07:02:33;;;;;;;;;5.00;4.00;;;;;;;;4890235;29;45519;-69
2022/06/27 07:05:01;;;;;;;;;2.67;2.67;;;;;;;;4894755;29;45510;-69
2022/06/27 07:07:28;;;;;;;;;2.00;2.00;;;;;;;;4893785;28;45239;-69
2022/06/27 07:09:53;;;;;;;;;3.33;3.33;;;;;;;;4901850;29;45180;-69
2022/06/27 07:12:18;;;;;;;;;4.00;3.33;;;;;;;;4896717;28;45525;-69
2022/06/27 07:14:45;;;;;;;;;5.00;4.00;;;;;;;;4900274;29;45220;-69
2022/06/27 07:17:10;;;;;;;;;3.67;3.67;;;;;;;;4895212;28;45417;-69
2022/06/27 07:19:38;;;;;;;;;5.33;4.00;;;;;;;;4899598;29;45424;-69
2022/06/27 07:22:04;;;;;;;;;3.33;3.00;;;;;;;;4895283;28;45531;-69
2022/06/27 07:24:30;;;;;;;;;3.00;3.00;;;;;;;;4899687;28;45356;-69
2022/06/27 07:26:57;;;;;;;;;2.33;2.00;;;;;;;;4895620;28;45335;-69
2022/06/27 07:29:22;;;;;;;;;4.00;4.00;;;;;;;;4896757;29;45366;-69
2022/06/27 07:31:48;;;;;;;;;4.00;3.00;;;;;;;;4894943;29;45789;-69
2022/06/27 07:34:17;;;;;;;;;4.67;3.00;;;;;;;;4898818;28;45470;-69
2022/06/27 07:36:43;;;;;;;;;5.00;3.33;;;;;;;;4895716;29;45486;-69
2022/06/27 07:39:08;;;;;;;;;2.67;2.67;;;;;;;;4899702;28;45514;-69
2022/06/27 07:41:33;;;;;;;;;3.33;3.00;;;;;;;;4896689;28;45645;-69
2022/06/27 07:44:00;;;;;;;;;3.67;2.00;;;;;;;;4899449;28;45694;-69
2022/06/27 07:46:25;;;;;;;;;3.33;3.33;;;;;;;;4895147;28;45546;-69
2022/06/27 07:48:51;;;;;;;;;2.67;1.33;;;;;;;;4895835;28;45420;-69
2022/06/27 07:51:19;;;;;;;;;5.00;3.00;;;;;;;;4885523;29;45387;-69
2022/06/27 07:53:46;;;;;;;;;3.33;3.33;;;;;;;;4899238;28;45644;-69
2022/06/27 07:56:12;;;;;;;;;2.00;2.00;;;;;;;;4895177;28;45375;-69
2022/06/27 07:58:38;;;;;;;;;2.00;2.00;;;;;;;;4899313;28;45479;-69
2022/06/27 08:01:05;;;;;;;;;4.00;2.67;;;;;;;;4888780;28;45526;-69
2022/06/27 08:03:36;;;;;;;;;2.00;2.00;;;;;;;;4887275;29;45628;-69
2022/06/27 08:06:02;;;;;;;;;2.67;2.67;;;;;;;;4887867;29;46196;-69
2022/06/27 08:08:28;;;;;;;;;2.00;2.00;;;;;;;;4888778;29;45581;-69
2022/06/27 08:10:54;;;;;;;;;1.67;1.67;;;;;;;;4889352;28;45475;-69
2022/06/27 08:13:19;;;;;;;;;2.00;2.00;;;;;;;;4887376;28;46416;-69
2022/06/27 08:15:47;;;;;;;;;3.67;2.67;;;;;;;;4884049;29;45514;-70
2022/06/27 08:18:12;;;;;;;;;4.67;2.67;;;;;;;;4895498;29;45289;-69
2022/06/27 08:20:38;;;;;;;;;1.67;1.67;;;;;;;;4895979;29;45399;-71
2022/06/27 08:23:03;;;;;;;;;2.67;2.67;;;;;;;;4895701;29;47685;-69
2022/06/27 08:25:29;;;;;;;;;6.00;2.00;;;;;;;;4898960;28;45471;-69
2022/06/27 08:27:55;;;;;;;;;3.00;2.00;;;;;;;;4901159;29;45479;-69
2022/06/27 08:30:25;;;;;;;;;2.33;2.33;;;;;;;;4891382;29;46102;-69
2022/06/27 08:32:54;;;;;;;;;1.67;1.67;;;;;;;;4881671;29;45985;-70
2022/06/27 08:35:19;;;;;;;;;2.67;2.67;;;;;;;;4897875;29;45448;-69
2022/06/27 08:37:46;;;;;;;;;2.67;2.67;;;;;;;;4898974;29;45416;-70
2022/06/27 08:40:11;;;;;;;;;4.33;4.33;;;;;;;;4904065;29;45352;-69
2022/06/27 08:42:37;;;;;;;;;0.67;0.67;;;;;;;;4889379;29;45347;-68
2022/06/27 08:45:07;;;;;;;;;3.33;2.67;;;;;;;;4903199;29;45422;-68
2022/06/27 08:47:32;;;;;;;;;7.33;4.00;;;;;;;;4883863;28;45463;-68
2022/06/27 08:49:57;;;;;;;;;2.33;1.33;;;;;;;;4880098;29;45573;-69
2022/06/27 08:52:22;;;;;;;;;4.33;3.67;;;;;;;;4882323;29;45433;-68
2022/06/27 08:54:51;;;;;;;;;4.33;3.00;;;;;;;;4901317;28;46516;-69
2022/06/27 08:57:18;;;;;;;;;2.67;2.67;;;;;;;;4885646;29;45333;-68
2022/06/27 08:59:44;;;;;;;;;5.00;4.00;;;;;;;;4894023;29;45403;-68
2022/06/27 09:02:09;;;;;;;;;3.00;2.00;;;;;;;;4891642;28;45440;-68
2022/06/27 09:04:55;;;;;;;;;2.00;2.00;;;;;;;;4896210;28;45360;-69
2022/06/27 09:07:21;;;;;;;;;2.00;2.00;;;;;;;;4892445;28;45269;-68
2022/06/27 09:09:46;;;;;;;;;4.00;4.00;;;;;;;;4899905;29;45498;-69
2022/06/27 09:12:12;;;;;;;;;3.67;3.67;;;;;;;;4885547;28;45354;-69
2022/06/27 09:14:39;;;;;;;;;2.33;2.33;;;;;;;;4884966;29;45364;-69
2022/06/27 09:17:10;;;;;;;;;3.00;3.00;;;;;;;;4876762;29;45280;-68
2022/06/27 09:19:53;;;;;;;;;2.00;2.00;;;;;;;;4888193;29;45443;-69
2022/06/27 09:22:20;;;;;;;;;2.33;2.33;;;;;;;;4877726;29;45451;-69
2022/06/27 09:25:01;;;;;;;;;3.67;1.33;;;;;;;;4886037;29;45431;-69
2022/06/27 09:27:36;;;;;;;;;2.00;2.00;;;;;;;;4890341;29;45507;-69
2022/06/27 09:30:21;;;;;;;;;3.00;3.00;;;;;;;;4886129;29;45572;-69
2022/06/27 09:32:49;;;;;;;;;2.00;2.00;;;;;;;;4884497;29;46366;-69
2022/06/27 09:35:20;;;;;;;;;2.00;2.00;;;;;;;;4892101;29;45349;-69
2022/06/27 09:37:53;;;;;;;;;4.00;2.00;;;;;;;;4883165;29;45272;-68
2022/06/27 09:40:19;;;;;;;;;3.75;2.75;;;;;;;;4893869;29;45658;-69
2022/06/27 09:42:46;;;;;;;;;3.50;2.00;;;;;;;;4885489;29;46486;-69
2022/06/27 09:45:14;;;;;;;;;2.00;2.00;;;;;;;;4902695;28;45345;-69
2022/06/27 09:47:39;;;;;;;;;1.00;1.00;;;;;;;;4896849;28;45466;-69
2022/06/27 09:50:05;;;;;;;;;1.50;1.50;;;;;;;;4903327;28;45941;-69
2022/06/27 09:52:30;;;;;;;;;2.00;2.00;;;;;;;;4895897;28;45446;-68
2022/06/27 09:54:56;;;;;;;;;1.50;1.50;;;;;;;;4903496;29;45382;-69
2022/06/27 09:57:22;;;;;;;;;4.00;1.00;;;;;;;;4896597;28;45478;-69
2022/06/27 09:59:51;;;;;;;;;3.00;1.00;;;;;;;;4903049;29;45546;-69
2022/06/27 10:02:17;;;;;;;;;1.00;1.00;;;;;;;;4897691;28;45459;-69
2022/06/27 10:04:43;;;;;;;;;1.20;1.20;;;;;;;;4901988;29;45300;-68
2022/06/27 10:07:09;;;;;;;;;2.00;0.75;;;;;;;;4883031;28;45446;-69
2022/06/27 10:09:38;;;;;;;;;0.00;0.00;;;;;;;;4882861;29;45258;-69
2022/06/27 10:12:38;;;;;;;;;2.00;0.80;;;;;;;;4881501;29;46183;-69
2022/06/27 10:15:10;;;;;;;;;0.80;0.00;;;;;;;;4882479;29;45280;-69
2022/06/27 10:17:39;;;;;;;;;0.40;0.40;;;;;;;;4883771;29;45345;-68
2022/06/27 10:20:19;;;;;;;;;0.20;0.20;;;;;;;;4892581;28;45414;-69
2022/06/27 10:22:46;;;;;;;;;0.00;0.00;;;;;;;;4889021;29;45690;-69
2022/06/27 10:25:26;;;;;;;;;0.00;0.00;;;;;;;;4893841;28;45451;-75
2022/06/27 10:28:07;;;;;;;;;0.00;0.00;;;;;;;;4889020;29;45420;-69
2022/06/27 10:30:36;;;;;;;;;0.80;0.80;;;;;;;;4878498;29;45519;-68
2022/06/27 10:33:21;;;;;;;;;0.20;0.20;;;;;;;;4883716;28;46904;-69
2022/06/27 10:35:57;;;;;;;;;1.80;0.40;;;;;;;;4887465;29;45502;-69
2022/06/27 10:38:32;;;;;;;;;0.20;0.20;;;;;;;;4884487;29;45283;-68
2022/06/27 10:40:59;;;;;;;;;0.80;0.80;;;;;;;;4892242;29;45423;-68
2022/06/27 10:43:40;;;;;;;;;0.20;0.20;;;;;;;;4883533;29;46475;-69
2022/06/27 10:46:05;;;;;;;;;0.80;0.80;;;;;;;;4895912;29;45284;-69
2022/06/27 10:48:37;;;;;;;;;0.00;0.00;;;;;;;;4888079;29;45514;-69
2022/06/27 10:51:17;;;;;;;;;1.40;1.40;;;;;;;;4886603;28;45264;-69
2022/06/27 10:53:43;;;;;;;;;0.20;0.20;;;;;;;;4890086;29;46887;-70
2022/06/27 10:56:43;;;;;;;;;0.00;0.00;;;;;;;;4885902;29;45383;-70
2022/06/27 10:59:14;;;;;;;;;0.20;0.00;;;;;;;;4867407;29;45522;-70
2022/06/27 11:01:40;;;;;;;;;0.40;0.20;;;;;;;;4881269;29;45804;-70
2022/06/27 11:04:06;;;;;;;;;0.00;0.00;;;;;;;;4888263;28;45370;-70
2022/06/27 11:06:31;;;;;;;;;1.80;0.20;;;;;;;;4883226;29;45448;-71
2022/06/27 11:08:56;;;;;;;;;0.75;0.75;;;;;;;;4888972;29;45298;-70
2022/06/27 11:11:23;;;;;;;;;0.00;0.00;;;;;;;;4887305;29;45461;-71
2022/06/27 11:13:48;;;;;;;;;0.20;0.20;;;;;;;;4888874;29;46890;-71
2022/06/27 11:16:18;;;;;;;;;1.00;0.25;;;;;;;;4890601;28;45304;-69
2022/06/27 11:18:44;;;;;;;;;0.00;0.00;;;;;;;;4893184;29;45310;-69
2022/06/27 11:21:11;;;;;;;;;1.40;0.00;;;;;;;;4891965;28;45355;-69
2022/06/27 11:23:53;;;;;;;;;0.00;0.00;;;;;;;;4875631;29;46442;-70
2022/06/27 11:26:18;;;;;;;;;0.80;0.00;;;;;;;;4883463;29;45357;-69
2022/06/27 11:34:12;;;;;;;;;1.40;0.20;;;;;;;;4885373;29;45422;-69
2022/06/27 11:36:39;;;;;;;;;0.25;0.00;;;;;;;;4876918;29;45584;-70
2022/06/27 11:39:04;;;;;;;;;1.80;0.60;;;;;;;;4887349;29;45299;-70
2022/06/27 11:41:30;;;;;;;;;0.25;0.25;;;;;;;;4881714;28;45469;-69
2022/06/27 11:44:03;;;;;;;;;0.00;0.00;;;;;;;;4897285;29;46549;-70
2022/06/27 11:46:28;;;;;;;;;0.00;0.00;;;;;;;;4894104;28;45177;-68
2022/06/27 11:48:59;;;;;;;;;0.00;0.00;;;;;;;;4899207;29;45393;-68
2022/06/27 11:51:31;;;;;;;;;0.40;0.00;;;;;;;;4894498;29;45517;-68
2022/06/27 11:53:59;;;;;;;;;1.60;1.60;;;;;;;;4898039;29;47065;-68
2022/06/27 11:56:25;;;;;;;;;0.00;0.00;;;;;;;;4894631;28;45800;-68
2022/06/27 11:58:55;;;;;;;;;0.00;0.00;;;;;;;;4900057;28;45433;-69
2022/06/27 12:01:21;;;;;;;;;0.40;0.00;;;;;;;;4896532;28;45529;-68
2022/06/27 12:04:05;;;;;;;;;0.50;0.50;;;;;;;;4903288;28;46361;-68
2022/06/27 12:06:30;;;;;;;;;0.20;0.20;;;;;;;;4897109;28;45476;-68
2022/06/27 12:09:01;;;;;;;;;0.00;0.00;;;;;;;;4899870;29;45407;-68
2022/06/27 12:11:28;;;;;;;;;0.00;0.00;;;;;;;;4897083;28;45826;-68
2022/06/27 12:13:58;;;;;;;;;1.20;0.00;;;;;;;;4904744;28;46752;-68
2022/06/27 12:16:23;;;;;;;;;0.80;0.00;;;;;;;;4894047;28;45544;-69
2022/06/27 12:18:51;;;;;;;;;0.00;0.00;;;;;;;;4897915;29;45427;-69
2022/06/27 12:21:16;;;;;;;;;0.20;0.20;;;;;;;;4894607;29;45570;-69
2022/06/27 12:23:42;;;;;;;;;0.00;0.00;;;;;;;;4893626;29;46721;-68
2022/06/27 12:26:08;;;;;;;;;0.00;0.00;;;;;;;;4892595;29;45256;-68
2022/06/27 12:28:33;;;;;;;;;0.00;0.00;;;;;;;;4881480;29;45157;-69
2022/06/27 12:30:58;;;;;;;;;0.00;0.00;;;;;;;;4885178;29;45496;-69
2022/06/27 12:33:24;;;;;;;;;0.00;0.00;;;;;;;;4889267;29;45332;-69
2022/06/27 12:35:49;;;;;;;;;0.00;0.00;;;;;;;;4898995;28;45297;-68
2022/06/27 12:38:14;;;;;;;;;1.75;0.00;;;;;;;;4901324;28;45556;-69
2022/06/27 12:40:39;;;;;;;;;0.00;0.00;;;;;;;;4899606;28;45278;-68
2022/06/27 12:43:05;;;;;;;;;0.00;0.00;;;;;;;;4881151;29;45257;-69
2022/06/27 12:45:32;;;;;;;;;0.00;0.00;;;;;;;;4890048;29;45400;-68
2022/06/27 12:47:57;;;;;;;;;0.00;0.00;;;;;;;;4885275;29;45427;-67
2022/06/27 12:50:23;;;;;;;;;0.00;0.00;;;;;;;;4892026;29;45335;-69
2022/06/27 12:52:49;;;;;;;;;0.75;0.00;;;;;;;;4890267;29;45448;-69
2022/06/27 12:55:15;;;;;;;;;0.00;0.00;;;;;;;;4898027;29;45309;-68
2022/06/27 12:57:40;;;;;;;;;0.00;0.00;;;;;;;;4888224;29;45292;-69
2022/06/27 13:00:06;;;;;;;;;0.75;0.00;;;;;;;;4897683;29;45438;-69
2022/06/27 13:02:32;;;;;;;;;0.00;0.00;;;;;;;;4889222;28;45883;-68
2022/06/27 13:04:57;;;;;;;;;0.75;0.00;;;;;;;;4900183;29;45173;-68
2022/06/27 13:07:22;;;;;;;;;0.00;0.00;;;;;;;;4882647;28;45437;-68
2022/06/27 13:09:48;;;;;;;;;0.00;0.00;;;;;;;;4896348;29;45812;-69
2022/06/27 13:12:13;;;;;;;;;1.25;0.00;;;;;;;;4881793;29;45558;-69
2022/06/27 13:14:39;;;;;;;;;0.25;0.25;;;;;;;;4886936;29;45281;-69
2022/06/27 13:17:04;;;;;;;;;0.00;0.00;;;;;;;;4892683;29;45243;-70
2022/06/27 13:19:30;;;;;;;;;0.00;0.00;;;;;;;;4901463;28;45336;-70
2022/06/27 13:21:56;;;;;;;;;0.25;0.00;;;;;;;;4897690;28;45423;-70
2022/06/27 13:24:21;;;;;;;;;0.25;0.25;;;;;;;;4902899;28;45310;-69
2022/06/27 13:26:46;;;;;;;;;0.00;0.00;;;;;;;;4883977;29;45286;-69
2022/06/27 13:29:11;;;;;;;;;0.00;0.00;;;;;;;;4895309;29;46480;-69
2022/06/27 13:31:37;;;;;;;;;0.25;0.25;;;;;;;;4892184;29;46652;-70
2022/06/27 13:34:02;;;;;;;;;1.25;0.00;;;;;;;;4891858;29;45438;-70
2022/06/27 13:36:27;;;;;;;;;0.00;0.00;;;;;;;;4892023;28;45355;-69
2022/06/27 13:38:52;;;;;;;;;2.25;2.00;;;;;;;;4884568;29;45472;-69
2022/06/27 13:41:18;;;;;;;;;0.00;0.00;;;;;;;;4881865;28;46219;-69
2022/06/27 13:43:43;;;;;;;;;0.25;0.25;;;;;;;;4899712;28;45354;-69
2022/06/27 13:46:08;;;;;;;;;0.25;0.00;;;;;;;;4891814;28;45300;-69
2022/06/27 13:48:33;;;;;;;;;0.00;0.00;;;;;;;;4852089;28;1160072;-70
2022/06/27 13:50:58;;;;;;;;;0.25;0.25;;;;;;;;4889086;28;45871;-70
2022/06/27 13:53:24;;;;;;;;;0.00;0.00;;;;;;;;4889990;28;45572;-70
2022/06/27 13:55:49;;;;;;;;;0.00;0.00;;;;;;;;4896400;29;45519;-69
2022/06/27 13:58:15;;;;;;;;;0.00;0.00;;;;;;;;4890399;29;45392;-70
2022/06/27 14:00:40;;;;;;;;;0.00;0.00;;;;;;;;4897314;28;46326;-70
2022/06/27 14:03:05;;;;;;;;;0.00;0.00;;;;;;;;4889679;29;45530;-70
2022/06/27 14:05:31;;;;;;;;;2.50;1.00;;;;;;;;4884262;29;45349;-69
2022/06/27 14:07:56;;;;;;;;;1.00;0.00;;;;;;;;4897683;29;45377;-70
2022/06/27 14:10:23;;;;;;;;;0.00;0.00;;;;;;;;4901131;29;46191;-70
2022/06/27 14:12:49;;;;;;;;;0.60;0.00;;;;;;;;4895863;29;45438;-70
2022/06/27 14:15:15;;;;;;;;;0.00;0.00;;;;;;;;4902679;28;45598;-69
2022/06/27 14:17:41;;;;;;;;;0.00;0.00;;;;;;;;4896514;29;45407;-69
2022/06/27 14:20:07;;;;;;;;;0.00;0.00;;;;;;;;4902932;28;45486;-69
2022/06/27 14:22:33;;;;;;;;;0.00;0.00;;;;;;;;4895998;29;45498;-69
2022/06/27 14:25:00;;;;;;;;;0.00;0.00;;;;;;;;4902715;29;45931;-69
2022/06/27 14:27:25;;;;;;;;;0.20;0.00;;;;;;;;4895686;29;45527;-69
2022/06/27 14:29:50;;;;;;;;;0.00;0.00;;;;;;;;4899700;29;47197;-69
2022/06/27 14:32:15;;;;;;;;;0.00;0.00;;;;;;;;4896748;29;45798;-70
2022/06/27 14:34:41;;;;;;;;;1.75;0.00;;;;;;;;4899504;29;45362;-70
2022/06/27 14:37:06;;;;;;;;;0.00;0.00;;;;;;;;4880767;29;45847;-70
2022/06/27 14:39:32;;;;;;;;;0.00;0.00;;;;;;;;4875857;29;45435;-70
2022/06/27 14:41:58;;;;;;;;;0.25;0.25;;;;;;;;4875310;29;45278;-69
2022/06/27 14:44:23;;;;;;;;;0.00;0.00;;;;;;;;4888114;29;45262;-69
2022/06/27 14:46:49;;;;;;;;;0.00;0.00;;;;;;;;4875757;28;45359;-71
2022/06/27 14:49:14;;;;;;;;;0.00;0.00;;;;;;;;4884395;28;46284;-69